首页
METAR-TAF:

METAR-TAF

机场 :

Powell River, 不列颠哥伦比亚, 加拿大

纬度: 49-50N, 经度: 124-30W, 海拔: 130米

当前天气观测

该预报发布于53分钟前的21:00 UTC
风速7节,风向西,在西南西北之间变化
温度 22°C
湿度 50%
气压 1011 hPa
能見度: 32.2公里
少量云层高于4400英尺
少量云层高于22000英尺

METAR: CYPW 262100Z 28007KT 230V310 20SM FEW044 FEW220 22/11 A2985 RMK CU1CS1 CU TR CS TR SLP111 DENSITY ALT 1500FT

时间: 14:53 (21:53 UTC)


TAF: 丢失

超过4000个机场的气象观测和天气预报(METAR&TAF报告)。

可查询的气象台以黄色和红色小点在地图上表示。

将鼠标移到小点上方,可查看气象台名称。

然后点击查看天气观测和预报。

如需切换地图:点击带黑十字的绿色按钮放大地图;点击带横线的绿色按钮缩小地图;或者点击绿色箭头查看邻近地区的地图。


METAR-TAF: